Coopersville, Kentucky
Current Conditions -  °F | °C
As of 9:56 PM on Thursday 18 Dec 2014 (Local Time) from KEKQ Reporting Station
Overcast Overcast  
Wind Chill: 35°   Ceiling: 4600
Heat Index: 35°   Visibility: 10mi
Dew Point: 29°   Wind: 0mph
Humidity: 79%   Direction: NA
Pressure: 30.24"   Gusts: NA
Location:  36.8129°N, 84.8215°W
Report Text: KEKQ 190256Z AUTO 00000KT 10SM OVC046 02/M02 A3024 RMK AO2 51004 T00161016 SLP249
Loading
Personal Weather Stations






























Interactive Weather Map New forecast layout! Learn more

10-Day Weather Forecast

Advertisements
Track Severe Weather on mobile